Baildon, United Kingdom
Current Conditions -  °F | °C
As of 1:50 PM on Thursday 30 Oct 2014 (Local Time) from EGNM Reporting Station
Broken Clouds Broken Clouds  
Wind Chill: 59°   Ceiling: 3700
Heat Index: 59°   Visibility: 6mi
Dew Point: 57°   Wind: 9mph
Humidity: 94%   Direction: 210°SSW
Pressure: 29.97"   Gusts: NA
Location:  53.85°N, 1.79°W
Report Text: EGNM 301350Z 21008KT 180V240 9999 FEW012 BKN037 15/14 Q1015
Loading
Personal Weather Stations






























Interactive Weather Map New forecast layout! Learn more

10-Day Weather Forecast

Advertisements
Track Severe Weather on mobile